Time;durP1;ratioP1;P1;durP2;ratioP2;P2;SDS_P1;SDS_P2;PMS_P1;PMS_P2;Temp;Humidity;BMP_temperature;BMP_pressure;BME280_temperature;BME280_humidity;BME280_pressure;Samples;Min_cycle;Max_cycle;Signal;HPM_P1;HPM_P2
2022/10/27 00:00:51;;;;;;;;;;;19.70;99.90;;;;;;5010454;28;19925;-61
2022/10/27 00:03:18;;;;;;;;;;;19.60;99.90;;;;;;5009744;28;19932;-60
2022/10/27 00:05:46;;;;;;;;;;;19.60;99.90;;;;;;5010974;28;20270;-62
2022/10/27 00:08:17;;;;;;;;;;;19.60;99.90;;;;;;5009219;28;19922;-64
2022/10/27 00:10:54;;;;;;;;;;;19.60;99.90;;;;;;5015984;28;19937;-60
2022/10/27 00:13:21;;;;;;;;;;;19.60;99.90;;;;;;5007272;28;19925;-63
2022/10/27 00:15:55;;;;;;;;;;;19.60;99.90;;;;;;5009992;28;20313;-64
2022/10/27 00:18:22;;;;;;;;;;;19.60;99.90;;;;;;5009151;28;20043;-65
2022/10/27 00:20:56;;;;;;;;;;;19.60;99.90;;;;;;5010047;28;20306;-63
2022/10/27 00:23:24;;;;;;;;;;;19.60;99.90;;;;;;5009004;28;19926;-64
2022/10/27 00:25:51;;;;;;;;;;;19.60;99.90;;;;;;5013257;28;19925;-62
2022/10/27 00:28:18;;;;;;;;;;;19.60;99.90;;;;;;5028587;28;19925;-64
2022/10/27 00:30:46;;;;;;;;;;;19.60;99.90;;;;;;5026914;28;19936;-65
2022/10/27 00:33:13;;;;;;;;;;;19.60;99.90;;;;;;5025163;28;19925;-63
2022/10/27 00:35:40;;;;;;;;;;;19.60;99.90;;;;;;5023881;28;20291;-63
2022/10/27 00:38:07;;;;;;;;;;;19.60;99.90;;;;;;5013675;28;19932;-65
2022/10/27 00:40:35;;;;;;;;;;;19.60;99.90;;;;;;5023155;28;19992;-64
2022/10/27 00:43:20;;;;;;;;;;;19.60;99.90;;;;;;5015554;28;19929;-64
2022/10/27 00:45:48;;;;;;;;;;;19.60;99.90;;;;;;5002229;28;19960;-61
2022/10/27 00:48:15;;;;;;;;;;;19.50;99.90;;;;;;5009482;28;19929;-62
2022/10/27 00:50:43;;;;;;;;;;;19.60;99.90;;;;;;5007952;28;19925;-63
2022/10/27 00:53:10;;;;;;;;;;;19.50;99.90;;;;;;5011403;28;19921;-63
2022/10/27 00:55:38;;;;;;;;;;;19.50;99.90;;;;;;5009223;28;20001;-61
2022/10/27 00:58:08;;;;;;;;;;;19.50;99.90;;;;;;5008638;28;19925;-61
2022/10/27 01:00:37;;;;;;;;;;;19.50;99.90;;;;;;5009012;28;20304;-61
2022/10/27 01:03:05;;;;;;;;;;;19.50;99.90;;;;;;4996024;28;20317;-63
2022/10/27 01:05:32;;;;;;;;;;;19.50;99.90;;;;;;5009288;28;19926;-64
2022/10/27 01:08:01;;;;;;;;;;;19.50;99.90;;;;;;5007816;28;20401;-64
2022/10/27 01:10:28;;;;;;;;;;;19.50;99.90;;;;;;5014135;28;19936;-63
2022/10/27 01:12:56;;;;;;;;;;;19.50;99.90;;;;;;5008201;28;20123;-62
2022/10/27 01:15:26;;;;;;;;;;;19.50;99.90;;;;;;5008562;28;20309;-60
2022/10/27 01:18:10;;;;;;;;;;;19.50;99.90;;;;;;5009361;28;19941;-63
2022/10/27 01:20:43;;;;;;;;;;;19.50;99.90;;;;;;5008024;28;19933;-63
2022/10/27 01:23:10;;;;;;;;;;;19.50;99.90;;;;;;4991853;28;19944;-63
2022/10/27 01:25:46;;;;;;;;;;;19.50;99.90;;;;;;5009873;28;19925;-62
2022/10/27 01:28:32;;;;;;;;;;;19.50;99.90;;;;;;5013936;28;20308;-61
2022/10/27 01:31:03;;;;;;;;;;;19.50;99.90;;;;;;5007857;28;19925;-60
2022/10/27 01:33:39;;;;;;;;;;;19.50;99.90;;;;;;5008408;28;20305;-62
2022/10/27 01:36:09;;;;;;;;;;;19.50;99.90;;;;;;5006788;28;19996;-63
2022/10/27 01:38:39;;;;;;;;;;;19.50;99.90;;;;;;5006034;28;19925;-64
2022/10/27 01:41:19;;;;;;;;;;;19.50;99.90;;;;;;5007255;28;20393;-60
2022/10/27 01:43:47;;;;;;;;;;;19.50;99.90;;;;;;5002965;28;19929;-62
2022/10/27 01:46:16;;;;;;;;;;;19.50;99.90;;;;;;5006324;28;19936;-61
2022/10/27 01:48:44;;;;;;;;;;;19.50;99.90;;;;;;5007206;28;20010;-60
2022/10/27 01:51:11;;;;;;;;;;;19.50;99.90;;;;;;5006904;28;19926;-62
2022/10/27 01:53:43;;;;;;;;;;;19.50;99.90;;;;;;5008091;28;20385;-63
2022/10/27 01:56:23;;;;;;;;;;;19.50;99.90;;;;;;5006731;28;19948;-62
2022/10/27 01:58:55;;;;;;;;;;;19.50;99.90;;;;;;5008570;28;20424;-61
2022/10/27 02:01:41;;;;;;;;;;;19.50;99.90;;;;;;5006910;28;20404;-62
2022/10/27 02:04:12;;;;;;;;;;;19.50;99.90;;;;;;5007723;28;19925;-60
2022/10/27 02:06:58;;;;;;;;;;;19.50;99.90;;;;;;5008108;28;20452;-62
2022/10/27 02:09:25;;;;;;;;;;;19.50;99.90;;;;;;4990917;28;20305;-60
2022/10/27 02:11:53;;;;;;;;;;;19.50;99.90;;;;;;5007112;28;19925;-64
2022/10/27 02:14:21;;;;;;;;;;;19.40;99.90;;;;;;5005778;28;20496;-62
2022/10/27 02:16:50;;;;;;;;;;;19.50;99.90;;;;;;5007060;28;20401;-62
2022/10/27 02:19:20;;;;;;;;;;;19.40;99.90;;;;;;5007266;28;19929;-63
2022/10/27 02:21:49;;;;;;;;;;;19.40;99.90;;;;;;5007621;28;20393;-59
2022/10/27 02:24:16;;;;;;;;;;;19.40;99.90;;;;;;5007736;28;20417;-57
2022/10/27 02:26:56;;;;;;;;;;;19.40;99.90;;;;;;5007341;28;19925;-63
2022/10/27 02:29:26;;;;;;;;;;;19.40;99.90;;;;;;5007461;28;19921;-63
2022/10/27 02:31:55;;;;;;;;;;;19.40;99.90;;;;;;5006394;28;20297;-61
2022/10/27 02:34:23;;;;;;;;;;;19.40;99.90;;;;;;5007794;28;19925;-63
2022/10/27 02:36:50;;;;;;;;;;;19.40;99.90;;;;;;5007275;28;19952;-62
2022/10/27 02:39:17;;;;;;;;;;;19.40;99.90;;;;;;5014571;28;19929;-64
2022/10/27 02:41:44;;;;;;;;;;;19.40;99.90;;;;;;5017191;28;20236;-63
2022/10/27 02:44:11;;;;;;;;;;;19.40;99.90;;;;;;5017603;28;20731;-64
2022/10/27 02:46:39;;;;;;;;;;;19.40;99.90;;;;;;5012129;28;19925;-63
2022/10/27 02:49:10;;;;;;;;;;;19.40;99.90;;;;;;5013079;28;20410;-64
2022/10/27 02:51:37;;;;;;;;;;;19.40;99.90;;;;;;5007083;28;20292;-62
2022/10/27 02:54:04;;;;;;;;;;;19.40;99.90;;;;;;5008267;28;19928;-64
2022/10/27 02:56:31;;;;;;;;;;;19.40;99.90;;;;;;4987442;28;19926;-63
2022/10/27 02:58:58;;;;;;;;;;;19.40;99.90;;;;;;5006104;28;19921;-64
2022/10/27 03:01:25;;;;;;;;;;;19.40;99.90;;;;;;5005199;28;19929;-63
2022/10/27 03:03:53;;;;;;;;;;;19.30;99.90;;;;;;5007248;28;19928;-62
2022/10/27 03:06:20;;;;;;;;;;;19.30;99.90;;;;;;5006967;28;19921;-62
2022/10/27 03:08:47;;;;;;;;;;;19.30;99.90;;;;;;4987753;28;20317;-63
2022/10/27 03:11:14;;;;;;;;;;;19.30;99.90;;;;;;5005695;28;19925;-62
2022/10/27 03:13:41;;;;;;;;;;;19.40;99.90;;;;;;5004463;28;20591;-63
2022/10/27 03:16:08;;;;;;;;;;;19.40;99.90;;;;;;5003865;28;19921;-65
2022/10/27 03:18:35;;;;;;;;;;;19.30;99.90;;;;;;5008140;28;19921;-63
2022/10/27 03:21:02;;;;;;;;;;;19.30;99.90;;;;;;5006945;28;19933;-62
2022/10/27 03:23:29;;;;;;;;;;;19.30;99.90;;;;;;5006820;28;19921;-60
2022/10/27 03:25:56;;;;;;;;;;;19.30;99.90;;;;;;5006053;28;20103;-64
2022/10/27 03:28:29;;;;;;;;;;;19.30;99.90;;;;;;5005217;28;19925;-63
2022/10/27 03:30:56;;;;;;;;;;;19.40;99.90;;;;;;5006037;28;20425;-61
2022/10/27 03:33:23;;;;;;;;;;;19.40;99.90;;;;;;5007199;28;19929;-64
2022/10/27 03:35:50;;;;;;;;;;;19.30;99.90;;;;;;5005312;28;19925;-61
2022/10/27 03:38:17;;;;;;;;;;;19.40;99.90;;;;;;5007938;28;19936;-62
2022/10/27 03:40:44;;;;;;;;;;;19.30;99.90;;;;;;5005276;28;19921;-61
2022/10/27 03:43:11;;;;;;;;;;;19.30;99.90;;;;;;4992853;28;19925;-62
2022/10/27 03:45:38;;;;;;;;;;;19.40;99.90;;;;;;4989960;28;19929;-63
2022/10/27 03:48:06;;;;;;;;;;;19.30;99.90;;;;;;5008065;28;19929;-61
2022/10/27 03:50:34;;;;;;;;;;;19.30;99.90;;;;;;5008588;28;19921;-63
2022/10/27 03:53:02;;;;;;;;;;;19.30;99.90;;;;;;4993163;28;20411;-61
2022/10/27 03:55:30;;;;;;;;;;;19.30;99.90;;;;;;4998623;28;20000;-63
2022/10/27 03:57:57;;;;;;;;;;;19.30;99.90;;;;;;5009299;28;20231;-61
2022/10/27 04:00:24;;;;;;;;;;;19.30;99.90;;;;;;5000597;28;19925;-62
2022/10/27 04:02:52;;;;;;;;;;;19.30;99.90;;;;;;4982305;28;19932;-62
2022/10/27 04:05:20;;;;;;;;;;;19.30;99.90;;;;;;5011550;28;19922;-63
2022/10/27 04:07:47;;;;;;;;;;;19.30;99.90;;;;;;5009621;28;19936;-63
2022/10/27 04:10:14;;;;;;;;;;;19.30;99.90;;;;;;5009702;28;20313;-61
2022/10/27 04:12:51;;;;;;;;;;;19.40;99.90;;;;;;4990713;28;19925;-60
2022/10/27 04:15:19;;;;;;;;;;;19.40;99.90;;;;;;5009664;28;19925;-61
2022/10/27 04:17:46;;;;;;;;;;;19.40;99.90;;;;;;5008596;28;19925;-62
2022/10/27 04:20:13;;;;;;;;;;;19.40;99.90;;;;;;5008628;28;19928;-62
2022/10/27 04:22:41;;;;;;;;;;;19.40;99.90;;;;;;5009539;28;19925;-65
2022/10/27 04:25:08;;;;;;;;;;;19.40;99.90;;;;;;5010196;28;20373;-61
2022/10/27 04:27:35;;;;;;;;;;;19.40;99.90;;;;;;5009439;28;19921;-62
2022/10/27 04:30:02;;;;;;;;;;;19.40;99.90;;;;;;4990840;28;19932;-64
2022/10/27 04:32:29;;;;;;;;;;;19.40;99.90;;;;;;5008463;28;20239;-62
2022/10/27 04:34:57;;;;;;;;;;;19.40;99.90;;;;;;4990735;28;19936;-64
2022/10/27 04:37:25;;;;;;;;;;;19.40;99.90;;;;;;5006446;28;19929;-60
2022/10/27 04:39:52;;;;;;;;;;;19.50;99.90;;;;;;5010281;28;20265;-63
2022/10/27 04:42:19;;;;;;;;;;;19.40;99.90;;;;;;5012304;28;19929;-62
2022/10/27 04:44:46;;;;;;;;;;;19.50;99.90;;;;;;5014326;28;19922;-66
2022/10/27 04:47:13;;;;;;;;;;;19.50;99.90;;;;;;5015550;28;20405;-63
2022/10/27 04:49:40;;;;;;;;;;;19.50;99.90;;;;;;5021496;28;19922;-65
2022/10/27 04:52:07;;;;;;;;;;;19.50;99.90;;;;;;5021384;28;20333;-63
2022/10/27 04:54:34;;;;;;;;;;;19.50;99.90;;;;;;5017009;28;19921;-62
2022/10/27 04:57:01;;;;;;;;;;;19.50;99.90;;;;;;5006732;28;19937;-60
2022/10/27 04:59:28;;;;;;;;;;;19.50;99.90;;;;;;5013390;28;19925;-64
2022/10/27 05:01:55;;;;;;;;;;;19.50;99.90;;;;;;5011987;28;19926;-64
2022/10/27 05:04:23;;;;;;;;;;;19.50;99.90;;;;;;5015990;28;19928;-64
2022/10/27 05:06:50;;;;;;;;;;;19.50;99.90;;;;;;5010346;28;19921;-64
2022/10/27 05:09:17;;;;;;;;;;;19.50;99.90;;;;;;4994537;28;20377;-62
2022/10/27 05:11:44;;;;;;;;;;;19.50;99.90;;;;;;5009382;28;19947;-62
2022/10/27 05:14:11;;;;;;;;;;;19.60;99.90;;;;;;5008779;28;20011;-64
2022/10/27 05:16:38;;;;;;;;;;;19.60;99.90;;;;;;5006250;28;19929;-59
2022/10/27 05:19:05;;;;;;;;;;;19.60;99.90;;;;;;5010238;28;19929;-62
2022/10/27 05:21:32;;;;;;;;;;;19.60;99.90;;;;;;5006488;28;19933;-62
2022/10/27 05:23:59;;;;;;;;;;;19.60;99.90;;;;;;5008525;28;19929;-62
2022/10/27 05:26:27;;;;;;;;;;;19.70;99.90;;;;;;5010710;28;19933;-63
2022/10/27 05:28:54;;;;;;;;;;;19.70;99.90;;;;;;4995178;28;19925;-62
2022/10/27 05:31:21;;;;;;;;;;;19.70;99.90;;;;;;5005081;28;19925;-60
2022/10/27 05:33:48;;;;;;;;;;;19.70;99.90;;;;;;5008279;28;20397;-60
2022/10/27 05:36:15;;;;;;;;;;;19.70;99.90;;;;;;5003896;28;19925;-61
2022/10/27 05:38:44;;;;;;;;;;;19.70;99.90;;;;;;4992107;28;19926;-61
2022/10/27 05:41:11;;;;;;;;;;;19.70;99.90;;;;;;5006974;28;20428;-62
2022/10/27 05:43:40;;;;;;;;;;;19.70;99.90;;;;;;4992214;28;20317;-64
2022/10/27 05:46:08;;;;;;;;;;;19.70;99.90;;;;;;4984898;28;20313;-65
2022/10/27 05:48:35;;;;;;;;;;;19.70;99.90;;;;;;5005655;28;19932;-62
2022/10/27 05:51:02;;;;;;;;;;;19.70;99.90;;;;;;5007127;28;19928;-62
2022/10/27 05:53:29;;;;;;;;;;;19.70;99.90;;;;;;5005264;28;19955;-62
2022/10/27 05:55:58;;;;;;;;;;;19.70;99.90;;;;;;4989183;28;20329;-62
2022/10/27 05:58:25;;;;;;;;;;;19.70;99.90;;;;;;5004422;28;19929;-62
2022/10/27 06:00:55;;;;;;;;;;;19.80;99.90;;;;;;5005817;28;19929;-62
2022/10/27 06:03:23;;;;;;;;;;;19.80;99.90;;;;;;5005358;28;20349;-62
2022/10/27 06:05:51;;;;;;;;;;;19.80;99.90;;;;;;5009215;28;19926;-60
2022/10/27 06:08:18;;;;;;;;;;;19.80;99.90;;;;;;5007475;28;20503;-61
2022/10/27 06:10:45;;;;;;;;;;;19.80;99.90;;;;;;5012102;28;19940;-60
2022/10/27 06:13:13;;;;;;;;;;;19.80;99.90;;;;;;5006529;28;19932;-61
2022/10/27 06:15:40;;;;;;;;;;;19.80;99.90;;;;;;5006380;28;19925;-63
2022/10/27 06:18:07;;;;;;;;;;;19.20;99.90;;;;;;5010407;28;19925;-64
2022/10/27 06:20:34;;;;;;;;;;;18.80;99.90;;;;;;4990100;28;19934;-65
2022/10/27 06:23:02;;;;;;;;;;;18.90;99.90;;;;;;5009327;28;19925;-59
2022/10/27 06:25:29;;;;;;;;;;;19.00;99.90;;;;;;5012671;28;19928;-62
2022/10/27 06:27:56;;;;;;;;;;;19.20;99.90;;;;;;5015230;28;19936;-61
2022/10/27 06:30:23;;;;;;;;;;;19.20;99.90;;;;;;4991489;28;19929;-60
2022/10/27 06:32:50;;;;;;;;;;;19.30;99.90;;;;;;4994002;28;19922;-59
2022/10/27 06:35:18;;;;;;;;;;;19.40;99.90;;;;;;5006892;28;19929;-60
2022/10/27 06:37:46;;;;;;;;;;;19.40;99.90;;;;;;5005946;28;19933;-60
2022/10/27 06:40:14;;;;;;;;;;;19.40;99.90;;;;;;5005333;28;19921;-61
2022/10/27 06:42:41;;;;;;;;;;;19.40;99.90;;;;;;5001351;28;20700;-61
2022/10/27 06:45:28;;;;;;;;;;;19.40;99.90;;;;;;5006948;28;20493;-61
2022/10/27 06:47:56;;;;;;;;;;;19.50;99.90;;;;;;5006672;28;19921;-63
2022/10/27 06:50:23;;;;;;;;;;;19.50;99.90;;;;;;4996674;28;20412;-58
2022/10/27 06:52:51;;;;;;;;;;;19.50;99.90;;;;;;4992434;28;19929;-65
2022/10/27 06:55:19;;;;;;;;;;;19.50;99.90;;;;;;5018910;28;19939;-59
2022/10/27 06:57:46;;;;;;;;;;;19.50;99.90;;;;;;5022835;28;19925;-61
2022/10/27 07:00:13;;;;;;;;;;;19.50;99.90;;;;;;5020094;28;19927;-60
2022/10/27 07:02:40;;;;;;;;;;;19.50;99.90;;;;;;5019901;28;19922;-62
2022/10/27 07:05:08;;;;;;;;;;;19.50;99.90;;;;;;5022263;28;19941;-60
2022/10/27 07:07:35;;;;;;;;;;;19.50;99.90;;;;;;5010539;28;19929;-60
2022/10/27 07:10:03;;;;;;;;;;;19.50;99.90;;;;;;5009846;28;19929;-60
2022/10/27 07:12:30;;;;;;;;;;;19.30;99.90;;;;;;5006133;28;19925;-64
2022/10/27 07:14:57;;;;;;;;;;;18.70;99.90;;;;;;4985753;28;19925;-60
2022/10/27 07:17:24;;;;;;;;;;;18.40;99.90;;;;;;5002326;28;19926;-61
2022/10/27 07:19:52;;;;;;;;;;;18.10;99.90;;;;;;5003960;28;19936;-60
2022/10/27 07:22:19;;;;;;;;;;;18.00;99.90;;;;;;5006329;28;19925;-61
2022/10/27 07:24:46;;;;;;;;;;;18.00;99.90;;;;;;5008950;28;19929;-62
2022/10/27 07:27:13;;;;;;;;;;;18.40;99.90;;;;;;5010387;28;19921;-61
2022/10/27 07:29:40;;;;;;;;;;;18.70;99.90;;;;;;5008676;28;19948;-59
2022/10/27 07:32:07;;;;;;;;;;;19.00;99.90;;;;;;5009039;28;19925;-60
2022/10/27 07:34:34;;;;;;;;;;;19.30;99.90;;;;;;5009874;28;19925;-59
2022/10/27 07:37:01;;;;;;;;;;;19.60;99.90;;;;;;4997148;28;19921;-58
2022/10/27 07:39:28;;;;;;;;;;;19.80;99.90;;;;;;5009206;28;19922;-62
2022/10/27 07:41:55;;;;;;;;;;;20.10;99.90;;;;;;5010776;28;19949;-58
2022/10/27 07:44:22;;;;;;;;;;;20.20;99.90;;;;;;5009267;28;20297;-58
2022/10/27 07:46:50;;;;;;;;;;;20.40;99.90;;;;;;5009730;28;19926;-57
2022/10/27 07:49:17;;;;;;;;;;;20.60;99.90;;;;;;5008405;28;21149;-60
2022/10/27 07:51:44;;;;;;;;;;;20.60;99.90;;;;;;5010523;28;19922;-60
2022/10/27 07:54:11;;;;;;;;;;;20.70;99.90;;;;;;5006704;28;19928;-58
2022/10/27 07:56:38;;;;;;;;;;;20.60;99.90;;;;;;5009596;28;19921;-59
2022/10/27 07:59:05;;;;;;;;;;;20.70;99.90;;;;;;5011017;28;20431;-57
2022/10/27 08:01:32;;;;;;;;;;;20.70;99.90;;;;;;5011187;28;20293;-60
2022/10/27 08:04:00;;;;;;;;;;;20.70;99.90;;;;;;5000059;28;19936;-60
2022/10/27 08:06:27;;;;;;;;;;;20.70;99.90;;;;;;5009552;28;20341;-64
2022/10/27 08:08:55;;;;;;;;;;;20.80;99.90;;;;;;5011841;28;19949;-63
2022/10/27 08:11:22;;;;;;;;;;;20.80;99.90;;;;;;5011187;28;19925;-61
2022/10/27 08:13:51;;;;;;;;;;;20.80;99.90;;;;;;5011469;28;19932;-64
2022/10/27 08:16:18;;;;;;;;;;;20.80;99.90;;;;;;4996859;28;19925;-63
2022/10/27 08:18:45;;;;;;;;;;;20.90;99.90;;;;;;5011370;28;20039;-63
2022/10/27 08:21:12;;;;;;;;;;;20.90;99.90;;;;;;5009123;28;19925;-62
2022/10/27 08:23:40;;;;;;;;;;;20.90;99.90;;;;;;4999494;28;19948;-61
2022/10/27 08:26:07;;;;;;;;;;;20.80;99.90;;;;;;5009885;28;19936;-58
2022/10/27 08:28:34;;;;;;;;;;;20.80;99.90;;;;;;5012508;28;19928;-62
2022/10/27 08:31:01;;;;;;;;;;;20.80;99.90;;;;;;4995544;28;19921;-62
2022/10/27 08:33:29;;;;;;;;;;;20.70;99.90;;;;;;5012763;28;19922;-62
2022/10/27 08:35:56;;;;;;;;;;;20.60;99.90;;;;;;5011370;28;19929;-63
2022/10/27 08:38:23;;;;;;;;;;;20.60;99.90;;;;;;4992514;28;19956;-65
2022/10/27 08:40:55;;;;;;;;;;;20.50;99.90;;;;;;5009574;28;19953;-62
2022/10/27 08:43:32;;;;;;;;;;;20.50;99.90;;;;;;5008109;28;19930;-64
2022/10/27 08:46:03;;;;;;;;;;;20.50;99.90;;;;;;4999866;28;20297;-62
2022/10/27 08:48:30;;;;;;;;;;;20.40;99.90;;;;;;5016322;28;20158;-66
2022/10/27 08:50:58;;;;;;;;;;;20.40;99.90;;;;;;5005390;28;19926;-65
2022/10/27 08:53:27;;;;;;;;;;;20.40;99.90;;;;;;5006926;28;20015;-65
2022/10/27 08:56:00;;;;;;;;;;;20.20;99.90;;;;;;5016864;28;19925;-64
2022/10/27 08:58:28;;;;;;;;;;;19.90;99.90;;;;;;5006136;28;20325;-63
2022/10/27 09:01:00;;;;;;;;;;;19.90;99.90;;;;;;5014084;28;19921;-63
2022/10/27 09:03:43;;;;;;;;;;;20.10;99.90;;;;;;4990093;28;19929;-64
2022/10/27 09:06:15;;;;;;;;;;;20.10;99.90;;;;;;5007844;28;19929;-63
2022/10/27 09:08:53;;;;;;;;;;;20.30;99.90;;;;;;5008518;28;19921;-63
2022/10/27 09:11:27;;;;;;;;;;;20.30;99.90;;;;;;5011697;28;20408;-63
2022/10/27 09:14:16;;;;;;;;;;;20.20;99.90;;;;;;5013705;28;19925;-62
2022/10/27 09:16:46;;;;;;;;;;;20.20;99.90;;;;;;5040111;22;19940;-64
2022/10/27 09:19:17;;;;;;;;;;;20.20;99.90;;;;;;5028654;28;20308;-63
2022/10/27 09:21:44;;;;;;;;;;;20.10;99.90;;;;;;5024897;28;19928;-65
2022/10/27 09:24:12;;;;;;;;;;;20.20;99.90;;;;;;5025387;28;19925;-65
2022/10/27 09:26:40;;;;;;;;;;;20.10;99.90;;;;;;5027340;28;19925;-63
2022/10/27 09:29:17;;;;;;;;;;;20.10;99.90;;;;;;5009029;28;19926;-64
2022/10/27 09:31:48;;;;;;;;;;;20.10;99.90;;;;;;5007278;28;19928;-61
2022/10/27 09:34:18;;;;;;;;;;;20.00;99.90;;;;;;5004748;28;19928;-67
2022/10/27 09:36:45;;;;;;;;;;;20.10;99.90;;;;;;5014800;28;19929;-63
2022/10/27 09:39:12;;;;;;;;;;;20.10;99.90;;;;;;5006011;28;19932;-63
2022/10/27 09:41:39;;;;;;;;;;;20.10;99.90;;;;;;5020181;28;19925;-64
2022/10/27 09:44:17;;;;;;;;;;;20.10;99.90;;;;;;5014239;28;19932;-68
2022/10/27 09:46:49;;;;;;;;;;;20.10;99.90;;;;;;5014565;28;19925;-61
2022/10/27 09:49:17;;;;;;;;;;;20.10;99.90;;;;;;5020115;28;19925;-64
2022/10/27 09:51:50;;;;;;;;;;;20.10;99.90;;;;;;5016185;28;19921;-68
2022/10/27 09:54:34;;;;;;;;;;;20.10;99.90;;;;;;5019232;28;20132;-62
2022/10/27 09:57:06;;;;;;;;;;;20.10;99.90;;;;;;5005551;28;20297;-68
2022/10/27 09:59:35;;;;;;;;;;;20.00;99.90;;;;;;5005098;28;19941;-61
2022/10/27 10:02:04;;;;;;;;;;;20.00;99.90;;;;;;5011478;28;20297;-62
2022/10/27 10:04:36;;;;;;;;;;;20.10;99.90;;;;;;5010452;28;19932;-63
2022/10/27 10:07:05;;;;;;;;;;;20.10;99.90;;;;;;5010074;28;19929;-71
2022/10/27 10:09:33;;;;;;;;;;;20.10;99.90;;;;;;5015320;28;20324;-65
2022/10/27 10:12:19;;;;;;;;;;;20.10;99.90;;;;;;4998114;28;19925;-66
2022/10/27 10:15:14;;;;;;;;;;;20.00;99.90;;;;;;5017945;28;19921;-68
2022/10/27 10:17:42;;;;;;;;;;;20.10;99.90;;;;;;4999653;28;20301;-63
2022/10/27 10:20:33;;;;;;;;;;;20.10;99.90;;;;;;5005788;28;21006;-63
2022/10/27 10:23:07;;;;;;;;;;;20.10;99.90;;;;;;4992588;28;19929;-64
2022/10/27 10:25:41;;;;;;;;;;;20.10;99.90;;;;;;4991361;28;19921;-65
2022/10/27 10:28:16;;;;;;;;;;;20.10;99.90;;;;;;4992699;28;19921;-65
2022/10/27 10:30:47;;;;;;;;;;;20.10;99.90;;;;;;5007134;28;19925;-59
2022/10/27 10:33:15;;;;;;;;;;;20.10;99.90;;;;;;5000332;28;20304;-64
2022/10/27 10:35:44;;;;;;;;;;;20.10;99.90;;;;;;5007615;28;19929;-65
2022/10/27 10:38:28;;;;;;;;;;;20.20;99.90;;;;;;4993234;28;19928;-64
2022/10/27 10:41:12;;;;;;;;;;;20.30;99.90;;;;;;5011565;28;19922;-66
2022/10/27 10:43:40;;;;;;;;;;;20.30;99.90;;;;;;4998782;28;19929;-65
2022/10/27 10:46:16;;;;;;;;;;;20.40;99.90;;;;;;5006675;28;20420;-66
2022/10/27 10:48:46;;;;;;;;;;;20.40;99.90;;;;;;5003059;28;19921;-65
2022/10/27 10:51:22;;;;;;;;;;;20.40;99.90;;;;;;5001073;28;19941;-63
2022/10/27 10:53:57;;;;;;;;;;;20.40;99.90;;;;;;5014563;28;19925;-64
2022/10/27 10:56:35;;;;;;;;;;;20.40;99.90;;;;;;5007584;28;19930;-63
2022/10/27 10:59:08;;;;;;;;;;;20.50;99.90;;;;;;5008150;28;20516;-66
2022/10/27 11:01:38;;;;;;;;;;;20.50;99.90;;;;;;5015486;28;19928;-66
2022/10/27 11:04:05;;;;;;;;;;;20.60;99.90;;;;;;5024035;28;19925;-67
2022/10/27 11:06:32;;;;;;;;;;;20.60;99.90;;;;;;5015221;28;19940;-66
2022/10/27 11:09:01;;;;;;;;;;;20.60;99.90;;;;;;5022693;28;19925;-63
2022/10/27 11:11:37;;;;;;;;;;;20.60;99.90;;;;;;5029163;28;19925;-62
2022/10/27 11:14:06;;;;;;;;;;;20.60;99.90;;;;;;5000283;28;19932;-63
2022/10/27 11:16:34;;;;;;;;;;;20.60;99.90;;;;;;4987444;28;19925;-65
2022/10/27 11:19:14;;;;;;;;;;;20.60;99.90;;;;;;5003473;28;20304;-62
2022/10/27 11:21:58;;;;;;;;;;;20.50;99.90;;;;;;5017027;28;19929;-66
2022/10/27 11:24:28;;;;;;;;;;;20.30;99.90;;;;;;5009493;28;19932;-64
2022/10/27 11:27:14;;;;;;;;;;;19.90;99.90;;;;;;5017849;28;19933;-66
2022/10/27 11:29:47;;;;;;;;;;;19.70;99.90;;;;;;5013582;28;19925;-65
2022/10/27 11:32:25;;;;;;;;;;;19.50;99.90;;;;;;5026177;28;19921;-62
2022/10/27 11:35:00;;;;;;;;;;;19.40;99.90;;;;;;5010794;28;19929;-64
2022/10/27 11:37:31;;;;;;;;;;;19.30;99.90;;;;;;5014787;28;19929;-61
2022/10/27 11:39:58;;;;;;;;;;;19.20;99.90;;;;;;5021364;28;19925;-63
2022/10/27 11:42:29;;;;;;;;;;;19.20;99.90;;;;;;5020410;28;19925;-63
2022/10/27 11:45:05;;;;;;;;;;;19.10;99.90;;;;;;5020267;28;19928;-65
2022/10/27 11:47:45;;;;;;;;;;;19.10;99.90;;;;;;5015240;28;19932;-65
2022/10/27 11:50:20;;;;;;;;;;;19.10;99.90;;;;;;5013939;28;19925;-64
2022/10/27 11:52:48;;;;;;;;;;;19.20;99.90;;;;;;5001614;28;19925;-66
2022/10/27 11:55:17;;;;;;;;;;;19.20;99.90;;;;;;4997077;28;20269;-65
2022/10/27 11:57:59;;;;;;;;;;;19.40;99.90;;;;;;4998941;28;20712;-67
2022/10/27 12:00:27;;;;;;;;;;;19.60;99.90;;;;;;5012964;28;19928;-63
2022/10/27 12:03:10;;;;;;;;;;;19.70;99.90;;;;;;5008116;28;19935;-66
2022/10/27 12:05:56;;;;;;;;;;;19.90;99.90;;;;;;5012130;28;19925;-64
2022/10/27 12:08:40;;;;;;;;;;;20.00;99.90;;;;;;5019239;28;19929;-63
2022/10/27 12:11:26;;;;;;;;;;;20.10;99.90;;;;;;5021319;28;20389;-62
2022/10/27 12:14:05;;;;;;;;;;;20.20;99.90;;;;;;5021479;28;19925;-65
2022/10/27 12:17:04;;;;;;;;;;;20.20;99.90;;;;;;5009950;28;20016;-66
2022/10/27 12:19:37;;;;;;;;;;;20.30;99.90;;;;;;4962299;28;19932;-64
2022/10/27 12:22:04;;;;;;;;;;;20.30;99.90;;;;;;5004333;28;19925;-67
2022/10/27 12:24:44;;;;;;;;;;;20.40;99.90;;;;;;5023049;28;19936;-66
2022/10/27 12:27:14;;;;;;;;;;;20.40;99.90;;;;;;5018466;28;19921;-66
2022/10/27 12:29:44;;;;;;;;;;;20.40;99.90;;;;;;4993990;28;19922;-66
2022/10/27 12:32:14;;;;;;;;;;;20.40;99.90;;;;;;5018283;28;20389;-63
2022/10/27 12:34:44;;;;;;;;;;;20.40;99.90;;;;;;5008356;28;19921;-62
2022/10/27 12:37:14;;;;;;;;;;;20.40;99.90;;;;;;5004389;28;19932;-63
2022/10/27 12:39:48;;;;;;;;;;;20.40;99.90;;;;;;5016192;28;20357;-65
2022/10/27 12:42:23;;;;;;;;;;;20.50;99.90;;;;;;5001382;28;19926;-65
2022/10/27 12:44:50;;;;;;;;;;;20.60;99.90;;;;;;5007611;28;19925;-65
2022/10/27 12:47:20;;;;;;;;;;;20.60;99.90;;;;;;5001768;28;19929;-64
2022/10/27 12:49:57;;;;;;;;;;;20.60;99.90;;;;;;5008809;28;19936;-65
2022/10/27 12:52:26;;;;;;;;;;;20.60;99.90;;;;;;5008019;28;19922;-66
2022/10/27 12:54:53;;;;;;;;;;;20.60;99.90;;;;;;5008070;28;20313;-66
2022/10/27 12:57:26;;;;;;;;;;;20.60;99.90;;;;;;5019749;28;19928;-67
2022/10/27 12:59:58;;;;;;;;;;;20.60;99.90;;;;;;5011096;28;19929;-65
2022/10/27 13:02:28;;;;;;;;;;;20.70;99.90;;;;;;5019223;28;19929;-67
2022/10/27 13:04:56;;;;;;;;;;;20.70;99.90;;;;;;5020292;28;19925;-64
2022/10/27 13:07:42;;;;;;;;;;;20.70;99.90;;;;;;5013943;28;19932;-70
2022/10/27 13:10:28;;;;;;;;;;;20.80;99.90;;;;;;5016167;28;19921;-68
2022/10/27 13:12:58;;;;;;;;;;;20.80;99.90;;;;;;5007406;28;19932;-67
2022/10/27 13:15:43;;;;;;;;;;;20.80;99.90;;;;;;5012782;28;20321;-64
2022/10/27 13:18:31;;;;;;;;;;;20.70;99.90;;;;;;5001930;28;19926;-67
2022/10/27 13:21:11;;;;;;;;;;;20.70;99.90;;;;;;5003182;28;19932;-67
2022/10/27 13:23:51;;;;;;;;;;;20.70;99.90;;;;;;4999875;28;19937;-66
2022/10/27 13:26:18;;;;;;;;;;;20.70;99.90;;;;;;5025507;28;19921;-63
2022/10/27 13:28:51;;;;;;;;;;;20.70;99.90;;;;;;5028556;28;19928;-68
2022/10/27 13:31:20;;;;;;;;;;;20.70;99.90;;;;;;5004530;28;19921;-64
2022/10/27 13:34:00;;;;;;;;;;;20.70;99.90;;;;;;5005369;28;19921;-68
2022/10/27 13:36:33;;;;;;;;;;;20.70;99.90;;;;;;5006068;28;19925;-67
2022/10/27 13:39:20;;;;;;;;;;;20.70;99.90;;;;;;5001055;28;19920;-67
2022/10/27 13:41:48;;;;;;;;;;;20.60;99.90;;;;;;5016460;28;19932;-65
2022/10/27 13:44:27;;;;;;;;;;;20.60;99.90;;;;;;5021721;28;19944;-64
2022/10/27 13:47:04;;;;;;;;;;;20.60;99.90;;;;;;5012384;28;19921;-64
2022/10/27 13:49:52;;;;;;;;;;;20.60;99.90;;;;;;5011328;28;20539;-67
2022/10/27 13:52:20;;;;;;;;;;;20.60;99.90;;;;;;5010030;28;19921;-63
2022/10/27 13:54:56;;;;;;;;;;;20.60;99.90;;;;;;5011337;28;20396;-62
2022/10/27 13:57:38;;;;;;;;;;;20.60;99.90;;;;;;5017075;28;19933;-68
2022/10/27 14:00:09;;;;;;;;;;;20.60;99.90;;;;;;5011962;28;19928;-64
2022/10/27 14:02:44;;;;;;;;;;;20.50;99.90;;;;;;4996575;28;19925;-66
2022/10/27 14:05:24;;;;;;;;;;;20.40;99.90;;;;;;5004603;28;19929;-66
2022/10/27 14:07:51;;;;;;;;;;;20.10;99.90;;;;;;5004272;28;19925;-66
2022/10/27 14:10:19;;;;;;;;;;;19.90;99.90;;;;;;5002223;28;20411;-63
2022/10/27 14:12:47;;;;;;;;;;;19.70;99.90;;;;;;5014832;28;20508;-63
2022/10/27 14:15:16;;;;;;;;;;;19.60;99.90;;;;;;5006140;28;19925;-63
2022/10/27 14:17:45;;;;;;;;;;;19.50;99.90;;;;;;5005159;28;19929;-66
2022/10/27 14:20:35;;;;;;;;;;;19.60;99.90;;;;;;5007270;28;20385;-66
2022/10/27 14:23:10;;;;;;;;;;;19.80;99.90;;;;;;4991588;28;20006;-65
2022/10/27 14:25:37;;;;;;;;;;;19.90;99.90;;;;;;5003789;28;19925;-64
2022/10/27 14:28:07;;;;;;;;;;;19.90;99.90;;;;;;5005211;28;20393;-67
2022/10/27 14:30:34;;;;;;;;;;;19.90;99.90;;;;;;5011384;28;20274;-68
2022/10/27 14:33:21;;;;;;;;;;;20.00;99.90;;;;;;5001904;28;19937;-66
2022/10/27 14:35:49;;;;;;;;;;;20.00;99.90;;;;;;4999157;28;19922;-65